sensor_id;sensor_type;location;lat;lon;timestamp;P1;durP1;ratioP1;P2;durP2;ratioP2
19804;SDS011;10062;51.052;13.756;2023-03-14T00:00:05;2.50;;;1.53;;
19804;SDS011;10062;51.052;13.756;2023-03-14T00:02:39;3.43;;;1.60;;
19804;SDS011;10062;51.052;13.756;2023-03-14T00:05:11;3.40;;;1.50;;
19804;SDS011;10062;51.052;13.756;2023-03-14T00:07:43;2.47;;;1.40;;
19804;SDS011;10062;51.052;13.756;2023-03-14T00:10:15;1.53;;;1.20;;
19804;SDS011;10062;51.052;13.756;2023-03-14T00:12:47;3.13;;;1.60;;
19804;SDS011;10062;51.052;13.756;2023-03-14T00:15:20;2.07;;;1.33;;
19804;SDS011;10062;51.052;13.756;2023-03-14T00:17:52;4.07;;;1.53;;
19804;SDS011;10062;51.052;13.756;2023-03-14T00:20:23;3.30;;;1.40;;
19804;SDS011;10062;51.052;13.756;2023-03-14T00:22:55;2.57;;;1.50;;
19804;SDS011;10062;51.052;13.756;2023-03-14T00:25:27;2.37;;;1.43;;
19804;SDS011;10062;51.052;13.756;2023-03-14T00:27:58;2.33;;;1.10;;
19804;SDS011;10062;51.052;13.756;2023-03-14T00:30:31;3.13;;;1.57;;
19804;SDS011;10062;51.052;13.756;2023-03-14T00:33:03;5.07;;;1.60;;
19804;SDS011;10062;51.052;13.756;2023-03-14T00:35:34;1.77;;;1.37;;
19804;SDS011;10062;51.052;13.756;2023-03-14T00:38:06;4.03;;;1.87;;
19804;SDS011;10062;51.052;13.756;2023-03-14T00:40:38;4.63;;;2.17;;
19804;SDS011;10062;51.052;13.756;2023-03-14T00:43:10;2.93;;;1.97;;
19804;SDS011;10062;51.052;13.756;2023-03-14T00:45:43;2.63;;;1.67;;
19804;SDS011;10062;51.052;13.756;2023-03-14T00:48:15;3.67;;;1.97;;
19804;SDS011;10062;51.052;13.756;2023-03-14T00:50:47;5.40;;;2.30;;
19804;SDS011;10062;51.052;13.756;2023-03-14T00:53:19;3.60;;;1.93;;
19804;SDS011;10062;51.052;13.756;2023-03-14T00:55:50;4.13;;;2.40;;
19804;SDS011;10062;51.052;13.756;2023-03-14T00:58:23;5.47;;;2.57;;
19804;SDS011;10062;51.052;13.756;2023-03-14T01:00:56;6.10;;;3.20;;
19804;SDS011;10062;51.052;13.756;2023-03-14T01:03:28;4.43;;;2.50;;
19804;SDS011;10062;51.052;13.756;2023-03-14T01:06:07;4.57;;;2.73;;
19804;SDS011;10062;51.052;13.756;2023-03-14T01:08:40;5.23;;;2.73;;
19804;SDS011;10062;51.052;13.756;2023-03-14T01:11:14;3.83;;;2.43;;
19804;SDS011;10062;51.052;13.756;2023-03-14T01:13:47;6.33;;;2.90;;
19804;SDS011;10062;51.052;13.756;2023-03-14T01:16:21;4.77;;;2.53;;
19804;SDS011;10062;51.052;13.756;2023-03-14T01:18:54;4.60;;;2.87;;
19804;SDS011;10062;51.052;13.756;2023-03-14T01:21:27;5.13;;;2.87;;
19804;SDS011;10062;51.052;13.756;2023-03-14T01:24:00;4.33;;;2.73;;
19804;SDS011;10062;51.052;13.756;2023-03-14T01:26:34;4.80;;;2.57;;
19804;SDS011;10062;51.052;13.756;2023-03-14T01:29:08;4.53;;;2.70;;
19804;SDS011;10062;51.052;13.756;2023-03-14T01:31:43;4.00;;;2.47;;
19804;SDS011;10062;51.052;13.756;2023-03-14T01:34:15;3.83;;;2.67;;
19804;SDS011;10062;51.052;13.756;2023-03-14T01:36:47;4.97;;;2.73;;
19804;SDS011;10062;51.052;13.756;2023-03-14T01:39:18;6.70;;;3.10;;
19804;SDS011;10062;51.052;13.756;2023-03-14T01:41:50;5.33;;;3.20;;
19804;SDS011;10062;51.052;13.756;2023-03-14T01:44:22;6.47;;;3.00;;
19804;SDS011;10062;51.052;13.756;2023-03-14T01:46:55;5.33;;;2.80;;
19804;SDS011;10062;51.052;13.756;2023-03-14T01:49:27;5.40;;;3.20;;
19804;SDS011;10062;51.052;13.756;2023-03-14T01:52:16;5.47;;;3.80;;
19804;SDS011;10062;51.052;13.756;2023-03-14T01:54:51;5.50;;;3.03;;
19804;SDS011;10062;51.052;13.756;2023-03-14T01:57:25;6.10;;;3.60;;
19804;SDS011;10062;51.052;13.756;2023-03-14T02:00:02;7.23;;;3.80;;
19804;SDS011;10062;51.052;13.756;2023-03-14T02:02:45;4.50;;;3.10;;
19804;SDS011;10062;51.052;13.756;2023-03-14T02:05:21;5.30;;;3.40;;
19804;SDS011;10062;51.052;13.756;2023-03-14T02:08:05;5.30;;;2.70;;
19804;SDS011;10062;51.052;13.756;2023-03-14T02:10:48;4.30;;;3.03;;
19804;SDS011;10062;51.052;13.756;2023-03-14T02:13:24;5.20;;;3.33;;
19804;SDS011;10062;51.052;13.756;2023-03-14T02:15:59;5.77;;;3.40;;
19804;SDS011;10062;51.052;13.756;2023-03-14T02:18:52;5.97;;;3.03;;
19804;SDS011;10062;51.052;13.756;2023-03-14T02:21:38;6.17;;;3.40;;
19804;SDS011;10062;51.052;13.756;2023-03-14T02:24:21;3.97;;;2.60;;
19804;SDS011;10062;51.052;13.756;2023-03-14T02:27:10;4.00;;;2.40;;
19804;SDS011;10062;51.052;13.756;2023-03-14T02:29:49;4.87;;;2.80;;
19804;SDS011;10062;51.052;13.756;2023-03-14T02:32:23;3.73;;;2.10;;
19804;SDS011;10062;51.052;13.756;2023-03-14T02:34:57;3.53;;;2.10;;
19804;SDS011;10062;51.052;13.756;2023-03-14T02:37:32;3.90;;;2.00;;
19804;SDS011;10062;51.052;13.756;2023-03-14T02:40:07;6.27;;;2.27;;
19804;SDS011;10062;51.052;13.756;2023-03-14T02:42:44;4.23;;;1.80;;
19804;SDS011;10062;51.052;13.756;2023-03-14T02:45:33;3.20;;;2.00;;
19804;SDS011;10062;51.052;13.756;2023-03-14T02:48:08;4.27;;;1.90;;
19804;SDS011;10062;51.052;13.756;2023-03-14T02:50:45;2.00;;;1.33;;
19804;SDS011;10062;51.052;13.756;2023-03-14T02:53:20;1.43;;;0.90;;
19804;SDS011;10062;51.052;13.756;2023-03-14T02:55:59;2.87;;;1.40;;
19804;SDS011;10062;51.052;13.756;2023-03-14T02:58:34;2.47;;;1.27;;
19804;SDS011;10062;51.052;13.756;2023-03-14T03:01:14;4.00;;;0.60;;
19804;SDS011;10062;51.052;13.756;2023-03-14T03:03:47;2.53;;;1.00;;
19804;SDS011;10062;51.052;13.756;2023-03-14T03:06:19;1.80;;;0.90;;
19804;SDS011;10062;51.052;13.756;2023-03-14T03:08:50;1.00;;;0.73;;
19804;SDS011;10062;51.052;13.756;2023-03-14T03:11:23;1.13;;;0.70;;
19804;SDS011;10062;51.052;13.756;2023-03-14T03:13:56;2.30;;;0.70;;
19804;SDS011;10062;51.052;13.756;2023-03-14T03:16:29;0.93;;;0.70;;
19804;SDS011;10062;51.052;13.756;2023-03-14T03:19:00;1.37;;;0.83;;
19804;SDS011;10062;51.052;13.756;2023-03-14T03:21:32;1.53;;;0.80;;
19804;SDS011;10062;51.052;13.756;2023-03-14T03:24:05;1.07;;;0.60;;
19804;SDS011;10062;51.052;13.756;2023-03-14T03:26:38;3.03;;;1.00;;
19804;SDS011;10062;51.052;13.756;2023-03-14T03:29:13;2.17;;;1.00;;
19804;SDS011;10062;51.052;13.756;2023-03-14T03:31:45;1.67;;;0.90;;
19804;SDS011;10062;51.052;13.756;2023-03-14T03:34:17;3.00;;;0.73;;
19804;SDS011;10062;51.052;13.756;2023-03-14T03:36:52;2.80;;;0.83;;
19804;SDS011;10062;51.052;13.756;2023-03-14T03:39:26;0.70;;;0.60;;
19804;SDS011;10062;51.052;13.756;2023-03-14T03:41:59;0.93;;;0.70;;
19804;SDS011;10062;51.052;13.756;2023-03-14T03:44:34;1.60;;;0.73;;
19804;SDS011;10062;51.052;13.756;2023-03-14T03:47:05;0.70;;;0.60;;
19804;SDS011;10062;51.052;13.756;2023-03-14T03:49:37;1.10;;;0.63;;
19804;SDS011;10062;51.052;13.756;2023-03-14T03:52:09;0.90;;;0.73;;
19804;SDS011;10062;51.052;13.756;2023-03-14T03:54:41;1.23;;;0.60;;
19804;SDS011;10062;51.052;13.756;2023-03-14T03:57:12;2.33;;;0.60;;
19804;SDS011;10062;51.052;13.756;2023-03-14T03:59:45;1.27;;;0.60;;
19804;SDS011;10062;51.052;13.756;2023-03-14T04:02:17;0.60;;;0.60;;
19804;SDS011;10062;51.052;13.756;2023-03-14T04:04:49;1.47;;;0.70;;
19804;SDS011;10062;51.052;13.756;2023-03-14T04:07:21;1.63;;;0.80;;
19804;SDS011;10062;51.052;13.756;2023-03-14T04:09:53;1.37;;;0.60;;
19804;SDS011;10062;51.052;13.756;2023-03-14T04:12:34;1.20;;;0.73;;
19804;SDS011;10062;51.052;13.756;2023-03-14T04:15:12;1.73;;;0.90;;
19804;SDS011;10062;51.052;13.756;2023-03-14T04:17:49;1.03;;;0.50;;
19804;SDS011;10062;51.052;13.756;2023-03-14T04:20:21;0.60;;;0.57;;
19804;SDS011;10062;51.052;13.756;2023-03-14T04:22:53;0.87;;;0.57;;
19804;SDS011;10062;51.052;13.756;2023-03-14T04:25:24;1.07;;;0.80;;
19804;SDS011;10062;51.052;13.756;2023-03-14T04:28:00;0.67;;;0.67;;
19804;SDS011;10062;51.052;13.756;2023-03-14T04:30:35;1.80;;;0.87;;
19804;SDS011;10062;51.052;13.756;2023-03-14T04:33:12;0.87;;;0.60;;
19804;SDS011;10062;51.052;13.756;2023-03-14T04:35:53;1.60;;;0.77;;
19804;SDS011;10062;51.052;13.756;2023-03-14T04:38:25;1.63;;;1.00;;
19804;SDS011;10062;51.052;13.756;2023-03-14T04:40:57;0.97;;;0.50;;
19804;SDS011;10062;51.052;13.756;2023-03-14T04:43:34;1.00;;;0.50;;
19804;SDS011;10062;51.052;13.756;2023-03-14T04:46:14;1.83;;;0.77;;
19804;SDS011;10062;51.052;13.756;2023-03-14T04:48:46;0.60;;;0.50;;
19804;SDS011;10062;51.052;13.756;2023-03-14T04:51:18;1.57;;;0.57;;
19804;SDS011;10062;51.052;13.756;2023-03-14T04:53:53;1.67;;;0.90;;
19804;SDS011;10062;51.052;13.756;2023-03-14T04:56:25;1.53;;;0.97;;
19804;SDS011;10062;51.052;13.756;2023-03-14T04:58:57;1.50;;;0.80;;
19804;SDS011;10062;51.052;13.756;2023-03-14T05:01:30;2.80;;;0.80;;
19804;SDS011;10062;51.052;13.756;2023-03-14T05:04:18;0.70;;;0.60;;
19804;SDS011;10062;51.052;13.756;2023-03-14T05:06:58;1.63;;;0.87;;
19804;SDS011;10062;51.052;13.756;2023-03-14T05:09:48;2.93;;;0.93;;
19804;SDS011;10062;51.052;13.756;2023-03-14T05:12:36;2.97;;;1.07;;
19804;SDS011;10062;51.052;13.756;2023-03-14T05:15:31;3.07;;;1.00;;
19804;SDS011;10062;51.052;13.756;2023-03-14T05:18:18;3.27;;;0.80;;
19804;SDS011;10062;51.052;13.756;2023-03-14T05:20:59;1.67;;;0.70;;
19804;SDS011;10062;51.052;13.756;2023-03-14T05:23:31;1.33;;;0.80;;
19804;SDS011;10062;51.052;13.756;2023-03-14T05:26:18;4.33;;;0.93;;
19804;SDS011;10062;51.052;13.756;2023-03-14T05:29:16;7.97;;;0.90;;
19804;SDS011;10062;51.052;13.756;2023-03-14T05:32:02;4.87;;;1.27;;
19804;SDS011;10062;51.052;13.756;2023-03-14T05:34:44;3.60;;;0.97;;
19804;SDS011;10062;51.052;13.756;2023-03-14T05:37:27;2.30;;;0.93;;
19804;SDS011;10062;51.052;13.756;2023-03-14T05:40:32;5.70;;;1.00;;
19804;SDS011;10062;51.052;13.756;2023-03-14T05:43:27;1.97;;;0.93;;
19804;SDS011;10062;51.052;13.756;2023-03-14T05:46:17;3.17;;;0.93;;
19804;SDS011;10062;51.052;13.756;2023-03-14T05:48:56;4.67;;;1.07;;
19804;SDS011;10062;51.052;13.756;2023-03-14T05:51:53;4.03;;;0.90;;
19804;SDS011;10062;51.052;13.756;2023-03-14T05:54:44;2.27;;;0.87;;
19804;SDS011;10062;51.052;13.756;2023-03-14T05:57:32;4.13;;;1.37;;
19804;SDS011;10062;51.052;13.756;2023-03-14T06:00:21;2.27;;;0.90;;
19804;SDS011;10062;51.052;13.756;2023-03-14T06:03:07;5.00;;;1.30;;
19804;SDS011;10062;51.052;13.756;2023-03-14T06:05:45;3.80;;;1.30;;
19804;SDS011;10062;51.052;13.756;2023-03-14T06:08:18;8.43;;;1.40;;
19804;SDS011;10062;51.052;13.756;2023-03-14T06:10:50;5.37;;;1.30;;
19804;SDS011;10062;51.052;13.756;2023-03-14T06:13:23;3.87;;;1.23;;
19804;SDS011;10062;51.052;13.756;2023-03-14T06:15:55;5.63;;;1.10;;
19804;SDS011;10062;51.052;13.756;2023-03-14T06:18:26;4.20;;;1.17;;
19804;SDS011;10062;51.052;13.756;2023-03-14T06:20:59;6.17;;;1.30;;
19804;SDS011;10062;51.052;13.756;2023-03-14T06:23:32;6.43;;;1.83;;
19804;SDS011;10062;51.052;13.756;2023-03-14T06:26:05;2.13;;;1.03;;
19804;SDS011;10062;51.052;13.756;2023-03-14T06:28:37;5.53;;;1.40;;
19804;SDS011;10062;51.052;13.756;2023-03-14T06:31:09;6.70;;;1.50;;
19804;SDS011;10062;51.052;13.756;2023-03-14T06:33:49;5.27;;;1.60;;
19804;SDS011;10062;51.052;13.756;2023-03-14T06:36:22;5.63;;;1.30;;
19804;SDS011;10062;51.052;13.756;2023-03-14T06:38:55;6.13;;;1.43;;
19804;SDS011;10062;51.052;13.756;2023-03-14T06:41:28;5.47;;;1.00;;
19804;SDS011;10062;51.052;13.756;2023-03-14T06:44:02;5.67;;;1.10;;
19804;SDS011;10062;51.052;13.756;2023-03-14T06:46:34;4.50;;;1.37;;
19804;SDS011;10062;51.052;13.756;2023-03-14T06:49:05;9.43;;;1.60;;
19804;SDS011;10062;51.052;13.756;2023-03-14T06:51:37;5.47;;;1.00;;
19804;SDS011;10062;51.052;13.756;2023-03-14T06:54:12;6.80;;;1.30;;
19804;SDS011;10062;51.052;13.756;2023-03-14T06:56:45;5.03;;;1.30;;
19804;SDS011;10062;51.052;13.756;2023-03-14T06:59:17;5.37;;;1.17;;
19804;SDS011;10062;51.052;13.756;2023-03-14T07:01:51;6.17;;;1.20;;
19804;SDS011;10062;51.052;13.756;2023-03-14T07:04:23;3.13;;;1.13;;
19804;SDS011;10062;51.052;13.756;2023-03-14T07:06:56;5.50;;;1.10;;
19804;SDS011;10062;51.052;13.756;2023-03-14T07:09:29;4.00;;;2.00;;
19804;SDS011;10062;51.052;13.756;2023-03-14T07:12:04;5.07;;;1.40;;
19804;SDS011;10062;51.052;13.756;2023-03-14T07:14:36;4.93;;;1.40;;
19804;SDS011;10062;51.052;13.756;2023-03-14T07:17:08;6.60;;;2.23;;
19804;SDS011;10062;51.052;13.756;2023-03-14T07:19:39;5.23;;;1.67;;
19804;SDS011;10062;51.052;13.756;2023-03-14T07:22:12;6.23;;;1.23;;
19804;SDS011;10062;51.052;13.756;2023-03-14T07:24:46;3.13;;;0.87;;
19804;SDS011;10062;51.052;13.756;2023-03-14T07:27:17;3.10;;;1.10;;
19804;SDS011;10062;51.052;13.756;2023-03-14T07:29:49;5.70;;;2.07;;
19804;SDS011;10062;51.052;13.756;2023-03-14T07:32:22;4.70;;;1.40;;
19804;SDS011;10062;51.052;13.756;2023-03-14T07:34:53;7.70;;;1.30;;
19804;SDS011;10062;51.052;13.756;2023-03-14T07:37:26;3.67;;;1.10;;
19804;SDS011;10062;51.052;13.756;2023-03-14T07:39:59;7.53;;;2.17;;
19804;SDS011;10062;51.052;13.756;2023-03-14T07:42:34;5.93;;;1.27;;
19804;SDS011;10062;51.052;13.756;2023-03-14T07:45:18;8.23;;;1.37;;
19804;SDS011;10062;51.052;13.756;2023-03-14T07:47:50;3.27;;;1.20;;
19804;SDS011;10062;51.052;13.756;2023-03-14T07:50:21;3.80;;;1.07;;
19804;SDS011;10062;51.052;13.756;2023-03-14T07:52:53;2.80;;;1.30;;
19804;SDS011;10062;51.052;13.756;2023-03-14T07:55:27;6.70;;;1.50;;
19804;SDS011;10062;51.052;13.756;2023-03-14T07:57:58;6.07;;;1.40;;
19804;SDS011;10062;51.052;13.756;2023-03-14T08:00:30;5.90;;;1.60;;
19804;SDS011;10062;51.052;13.756;2023-03-14T08:03:01;4.87;;;1.40;;
19804;SDS011;10062;51.052;13.756;2023-03-14T08:05:34;7.70;;;1.40;;
19804;SDS011;10062;51.052;13.756;2023-03-14T08:08:06;9.63;;;1.30;;
19804;SDS011;10062;51.052;13.756;2023-03-14T08:10:38;3.80;;;1.20;;
19804;SDS011;10062;51.052;13.756;2023-03-14T08:13:10;4.70;;;1.57;;
19804;SDS011;10062;51.052;13.756;2023-03-14T08:15:42;3.17;;;1.00;;
19804;SDS011;10062;51.052;13.756;2023-03-14T08:18:13;6.47;;;2.63;;
19804;SDS011;10062;51.052;13.756;2023-03-14T08:20:45;3.87;;;1.20;;
19804;SDS011;10062;51.052;13.756;2023-03-14T08:23:17;9.67;;;1.17;;
19804;SDS011;10062;51.052;13.756;2023-03-14T08:25:50;2.73;;;1.10;;
19804;SDS011;10062;51.052;13.756;2023-03-14T08:28:22;3.20;;;1.17;;
19804;SDS011;10062;51.052;13.756;2023-03-14T08:30:55;3.90;;;0.90;;
19804;SDS011;10062;51.052;13.756;2023-03-14T08:33:27;2.33;;;0.93;;
19804;SDS011;10062;51.052;13.756;2023-03-14T08:36:00;2.83;;;1.17;;
19804;SDS011;10062;51.052;13.756;2023-03-14T08:38:32;3.47;;;0.83;;
19804;SDS011;10062;51.052;13.756;2023-03-14T08:41:05;8.30;;;1.57;;
19804;SDS011;10062;51.052;13.756;2023-03-14T08:43:37;1.73;;;1.10;;
19804;SDS011;10062;51.052;13.756;2023-03-14T08:46:09;1.87;;;0.90;;
19804;SDS011;10062;51.052;13.756;2023-03-14T08:48:41;1.33;;;0.60;;
19804;SDS011;10062;51.052;13.756;2023-03-14T08:51:13;2.10;;;0.90;;
19804;SDS011;10062;51.052;13.756;2023-03-14T08:53:45;1.30;;;0.67;;
19804;SDS011;10062;51.052;13.756;2023-03-14T08:56:18;2.07;;;0.90;;
19804;SDS011;10062;51.052;13.756;2023-03-14T08:58:49;2.47;;;0.60;;
19804;SDS011;10062;51.052;13.756;2023-03-14T09:01:21;1.70;;;0.93;;
19804;SDS011;10062;51.052;13.756;2023-03-14T09:03:54;2.33;;;0.70;;
19804;SDS011;10062;51.052;13.756;2023-03-14T09:06:25;1.47;;;0.70;;
19804;SDS011;10062;51.052;13.756;2023-03-14T09:08:57;4.67;;;1.37;;
19804;SDS011;10062;51.052;13.756;2023-03-14T09:11:30;2.57;;;1.00;;
19804;SDS011;10062;51.052;13.756;2023-03-14T09:14:02;3.90;;;1.03;;
19804;SDS011;10062;51.052;13.756;2023-03-14T09:16:33;4.60;;;1.53;;
19804;SDS011;10062;51.052;13.756;2023-03-14T09:19:05;1.47;;;0.63;;
19804;SDS011;10062;51.052;13.756;2023-03-14T09:21:37;3.03;;;0.80;;
19804;SDS011;10062;51.052;13.756;2023-03-14T09:24:08;3.33;;;1.30;;
19804;SDS011;10062;51.052;13.756;2023-03-14T09:26:41;2.30;;;0.80;;
19804;SDS011;10062;51.052;13.756;2023-03-14T09:29:13;4.57;;;0.70;;
19804;SDS011;10062;51.052;13.756;2023-03-14T09:31:45;3.80;;;1.20;;
19804;SDS011;10062;51.052;13.756;2023-03-14T09:34:17;2.27;;;0.90;;
19804;SDS011;10062;51.052;13.756;2023-03-14T09:36:49;6.93;;;1.00;;
19804;SDS011;10062;51.052;13.756;2023-03-14T09:39:20;2.17;;;1.03;;
19804;SDS011;10062;51.052;13.756;2023-03-14T09:41:53;1.37;;;0.77;;
19804;SDS011;10062;51.052;13.756;2023-03-14T09:44:29;1.70;;;0.70;;
19804;SDS011;10062;51.052;13.756;2023-03-14T09:47:04;4.07;;;0.90;;
19804;SDS011;10062;51.052;13.756;2023-03-14T09:49:39;2.90;;;0.80;;
19804;SDS011;10062;51.052;13.756;2023-03-14T09:52:13;2.83;;;0.90;;
19804;SDS011;10062;51.052;13.756;2023-03-14T09:54:49;1.53;;;0.80;;
19804;SDS011;10062;51.052;13.756;2023-03-14T09:57:24;2.37;;;0.77;;
19804;SDS011;10062;51.052;13.756;2023-03-14T09:59:58;2.87;;;1.00;;
19804;SDS011;10062;51.052;13.756;2023-03-14T10:02:45;1.97;;;0.80;;
19804;SDS011;10062;51.052;13.756;2023-03-14T10:05:21;5.50;;;1.00;;
19804;SDS011;10062;51.052;13.756;2023-03-14T10:07:55;3.57;;;0.90;;
19804;SDS011;10062;51.052;13.756;2023-03-14T10:10:26;2.00;;;1.10;;
19804;SDS011;10062;51.052;13.756;2023-03-14T10:13:01;1.40;;;0.80;;
19804;SDS011;10062;51.052;13.756;2023-03-14T10:15:47;2.53;;;0.73;;
19804;SDS011;10062;51.052;13.756;2023-03-14T10:18:22;3.20;;;0.80;;
19804;SDS011;10062;51.052;13.756;2023-03-14T10:21:02;5.20;;;0.90;;
19804;SDS011;10062;51.052;13.756;2023-03-14T10:23:36;3.13;;;0.50;;
19804;SDS011;10062;51.052;13.756;2023-03-14T10:26:12;1.20;;;0.73;;
19804;SDS011;10062;51.052;13.756;2023-03-14T10:28:47;9.33;;;1.00;;
19804;SDS011;10062;51.052;13.756;2023-03-14T10:31:24;1.83;;;0.63;;
19804;SDS011;10062;51.052;13.756;2023-03-14T10:33:57;3.23;;;1.00;;
19804;SDS011;10062;51.052;13.756;2023-03-14T10:36:30;1.60;;;0.80;;
19804;SDS011;10062;51.052;13.756;2023-03-14T10:39:15;1.87;;;0.80;;
19804;SDS011;10062;51.052;13.756;2023-03-14T10:42:01;5.70;;;1.00;;
19804;SDS011;10062;51.052;13.756;2023-03-14T10:44:35;4.03;;;0.97;;
19804;SDS011;10062;51.052;13.756;2023-03-14T10:47:12;3.10;;;0.80;;
19804;SDS011;10062;51.052;13.756;2023-03-14T10:49:48;2.57;;;0.93;;
19804;SDS011;10062;51.052;13.756;2023-03-14T10:52:21;5.53;;;0.97;;
19804;SDS011;10062;51.052;13.756;2023-03-14T10:54:54;2.50;;;1.23;;
19804;SDS011;10062;51.052;13.756;2023-03-14T10:57:28;3.03;;;1.40;;
19804;SDS011;10062;51.052;13.756;2023-03-14T11:00:02;1.80;;;0.77;;
19804;SDS011;10062;51.052;13.756;2023-03-14T11:02:45;1.77;;;0.70;;
19804;SDS011;10062;51.052;13.756;2023-03-14T11:05:25;2.07;;;0.70;;
19804;SDS011;10062;51.052;13.756;2023-03-14T11:08:02;1.47;;;0.63;;
19804;SDS011;10062;51.052;13.756;2023-03-14T11:10:39;4.60;;;1.17;;
19804;SDS011;10062;51.052;13.756;2023-03-14T11:13:15;3.17;;;1.07;;
19804;SDS011;10062;51.052;13.756;2023-03-14T11:16:00;3.23;;;1.00;;
19804;SDS011;10062;51.052;13.756;2023-03-14T11:18:46;1.70;;;0.80;;
19804;SDS011;10062;51.052;13.756;2023-03-14T11:21:32;1.53;;;0.70;;
19804;SDS011;10062;51.052;13.756;2023-03-14T11:24:13;1.23;;;0.87;;
19804;SDS011;10062;51.052;13.756;2023-03-14T11:26:57;1.73;;;0.80;;
19804;SDS011;10062;51.052;13.756;2023-03-14T11:29:36;1.43;;;0.60;;
19804;SDS011;10062;51.052;13.756;2023-03-14T11:32:13;0.63;;;0.50;;
19804;SDS011;10062;51.052;13.756;2023-03-14T11:34:50;2.13;;;0.67;;
19804;SDS011;10062;51.052;13.756;2023-03-14T11:37:24;1.20;;;0.60;;
19804;SDS011;10062;51.052;13.756;2023-03-14T11:40:01;2.37;;;0.83;;
19804;SDS011;10062;51.052;13.756;2023-03-14T11:42:39;3.73;;;1.17;;
19804;SDS011;10062;51.052;13.756;2023-03-14T11:45:14;1.73;;;0.80;;
19804;SDS011;10062;51.052;13.756;2023-03-14T11:47:51;1.77;;;0.60;;
19804;SDS011;10062;51.052;13.756;2023-03-14T11:50:28;2.53;;;0.70;;
19804;SDS011;10062;51.052;13.756;2023-03-14T11:53:01;2.87;;;0.80;;
19804;SDS011;10062;51.052;13.756;2023-03-14T11:55:37;0.70;;;0.50;;
19804;SDS011;10062;51.052;13.756;2023-03-14T11:58:13;3.20;;;0.80;;
19804;SDS011;10062;51.052;13.756;2023-03-14T12:00:49;3.63;;;0.90;;
19804;SDS011;10062;51.052;13.756;2023-03-14T12:03:28;2.30;;;0.87;;
19804;SDS011;10062;51.052;13.756;2023-03-14T12:06:05;2.60;;;0.63;;
19804;SDS011;10062;51.052;13.756;2023-03-14T12:08:45;2.57;;;1.10;;
19804;SDS011;10062;51.052;13.756;2023-03-14T12:11:30;1.93;;;0.80;;
19804;SDS011;10062;51.052;13.756;2023-03-14T12:14:15;0.97;;;0.50;;
19804;SDS011;10062;51.052;13.756;2023-03-14T12:16:52;3.03;;;0.80;;
19804;SDS011;10062;51.052;13.756;2023-03-14T12:19:30;1.43;;;0.60;;
19804;SDS011;10062;51.052;13.756;2023-03-14T12:22:16;2.43;;;0.70;;
19804;SDS011;10062;51.052;13.756;2023-03-14T12:24:59;6.03;;;3.40;;
19804;SDS011;10062;51.052;13.756;2023-03-14T12:27:43;2.93;;;1.00;;
19804;SDS011;10062;51.052;13.756;2023-03-14T12:30:18;6.20;;;0.90;;
19804;SDS011;10062;51.052;13.756;2023-03-14T12:33:10;3.00;;;0.80;;
19804;SDS011;10062;51.052;13.756;2023-03-14T12:35:51;1.53;;;0.70;;
19804;SDS011;10062;51.052;13.756;2023-03-14T12:38:29;1.93;;;0.70;;
19804;SDS011;10062;51.052;13.756;2023-03-14T12:41:15;2.10;;;0.70;;
19804;SDS011;10062;51.052;13.756;2023-03-14T12:43:50;1.97;;;0.80;;
19804;SDS011;10062;51.052;13.756;2023-03-14T12:46:23;2.53;;;0.83;;
19804;SDS011;10062;51.052;13.756;2023-03-14T12:48:57;0.73;;;0.60;;
19804;SDS011;10062;51.052;13.756;2023-03-14T12:51:37;2.07;;;0.73;;
19804;SDS011;10062;51.052;13.756;2023-03-14T12:54:27;3.13;;;0.80;;
19804;SDS011;10062;51.052;13.756;2023-03-14T12:57:20;0.50;;;0.50;;
19804;SDS011;10062;51.052;13.756;2023-03-14T12:59:59;1.37;;;0.40;;
19804;SDS011;10062;51.052;13.756;2023-03-14T13:02:37;1.37;;;0.60;;
19804;SDS011;10062;51.052;13.756;2023-03-14T13:05:13;1.20;;;0.50;;
19804;SDS011;10062;51.052;13.756;2023-03-14T13:10:39;0.57;;;0.40;;
19804;SDS011;10062;51.052;13.756;2023-03-14T13:13:17;1.13;;;0.63;;
19804;SDS011;10062;51.052;13.756;2023-03-14T13:15:53;2.67;;;0.67;;
19804;SDS011;10062;51.052;13.756;2023-03-14T13:18:29;1.63;;;0.90;;
19804;SDS011;10062;51.052;13.756;2023-03-14T13:21:07;1.00;;;0.60;;
19804;SDS011;10062;51.052;13.756;2023-03-14T13:23:55;1.10;;;0.43;;
19804;SDS011;10062;51.052;13.756;2023-03-14T13:26:32;2.27;;;0.50;;
19804;SDS011;10062;51.052;13.756;2023-03-14T13:29:08;0.30;;;0.30;;
19804;SDS011;10062;51.052;13.756;2023-03-14T13:31:46;1.67;;;0.80;;
19804;SDS011;10062;51.052;13.756;2023-03-14T13:34:18;2.40;;;0.60;;
19804;SDS011;10062;51.052;13.756;2023-03-14T13:36:51;2.63;;;0.40;;
19804;SDS011;10062;51.052;13.756;2023-03-14T13:39:25;0.87;;;0.50;;
19804;SDS011;10062;51.052;13.756;2023-03-14T13:41:59;1.47;;;0.60;;
19804;SDS011;10062;51.052;13.756;2023-03-14T13:44:33;1.77;;;0.40;;
19804;SDS011;10062;51.052;13.756;2023-03-14T13:47:10;1.53;;;0.70;;
19804;SDS011;10062;51.052;13.756;2023-03-14T13:49:45;2.30;;;0.60;;
19804;SDS011;10062;51.052;13.756;2023-03-14T13:52:21;0.87;;;0.40;;
19804;SDS011;10062;51.052;13.756;2023-03-14T13:55:01;3.03;;;1.07;;
19804;SDS011;10062;51.052;13.756;2023-03-14T13:57:44;0.40;;;0.40;;
19804;SDS011;10062;51.052;13.756;2023-03-14T14:00:17;2.10;;;0.70;;
19804;SDS011;10062;51.052;13.756;2023-03-14T14:02:50;2.57;;;1.07;;
19804;SDS011;10062;51.052;13.756;2023-03-14T14:05:22;1.87;;;0.87;;
19804;SDS011;10062;51.052;13.756;2023-03-14T14:07:57;0.93;;;0.40;;
19804;SDS011;10062;51.052;13.756;2023-03-14T14:10:36;1.10;;;0.70;;
19804;SDS011;10062;51.052;13.756;2023-03-14T14:13:10;1.07;;;0.50;;
19804;SDS011;10062;51.052;13.756;2023-03-14T14:15:46;0.67;;;0.50;;
19804;SDS011;10062;51.052;13.756;2023-03-14T14:18:22;1.00;;;0.70;;
19804;SDS011;10062;51.052;13.756;2023-03-14T14:20:56;1.50;;;0.63;;
19804;SDS011;10062;51.052;13.756;2023-03-14T14:23:28;0.50;;;0.50;;
19804;SDS011;10062;51.052;13.756;2023-03-14T14:26:03;0.57;;;0.53;;
19804;SDS011;10062;51.052;13.756;2023-03-14T14:28:37;0.80;;;0.60;;
19804;SDS011;10062;51.052;13.756;2023-03-14T14:31:17;0.77;;;0.50;;
19804;SDS011;10062;51.052;13.756;2023-03-14T14:33:54;1.23;;;0.70;;
19804;SDS011;10062;51.052;13.756;2023-03-14T14:36:28;0.77;;;0.50;;
19804;SDS011;10062;51.052;13.756;2023-03-14T14:39:03;1.67;;;0.60;;
19804;SDS011;10062;51.052;13.756;2023-03-14T14:41:42;2.00;;;0.50;;
19804;SDS011;10062;51.052;13.756;2023-03-14T14:44:16;0.63;;;0.53;;
19804;SDS011;10062;51.052;13.756;2023-03-14T14:46:49;0.97;;;0.50;;
19804;SDS011;10062;51.052;13.756;2023-03-14T14:49:21;0.70;;;0.50;;
19804;SDS011;10062;51.052;13.756;2023-03-14T14:52:00;1.13;;;0.60;;
19804;SDS011;10062;51.052;13.756;2023-03-14T14:54:37;0.93;;;0.70;;
19804;SDS011;10062;51.052;13.756;2023-03-14T14:57:17;1.07;;;0.57;;
19804;SDS011;10062;51.052;13.756;2023-03-14T14:59:54;0.30;;;0.30;;
19804;SDS011;10062;51.052;13.756;2023-03-14T15:02:28;0.30;;;0.30;;
19804;SDS011;10062;51.052;13.756;2023-03-14T15:05:02;0.90;;;0.50;;
19804;SDS011;10062;51.052;13.756;2023-03-14T15:07:33;1.50;;;0.50;;
19804;SDS011;10062;51.052;13.756;2023-03-14T15:10:06;1.20;;;0.60;;
19804;SDS011;10062;51.052;13.756;2023-03-14T15:12:42;1.80;;;0.70;;
19804;SDS011;10062;51.052;13.756;2023-03-14T15:15:14;0.80;;;0.50;;
19804;SDS011;10062;51.052;13.756;2023-03-14T15:17:46;0.33;;;0.30;;
19804;SDS011;10062;51.052;13.756;2023-03-14T15:20:18;1.23;;;0.50;;
19804;SDS011;10062;51.052;13.756;2023-03-14T15:22:53;0.67;;;0.50;;
19804;SDS011;10062;51.052;13.756;2023-03-14T15:25:25;1.37;;;0.70;;